createdAt,value
2023-05-12T00:02:14.982Z,2.45
2023-05-12T00:04:42.411Z,2.72
2023-05-12T00:07:10.020Z,2.83
2023-05-12T00:09:37.250Z,2.85
2023-05-12T00:12:05.127Z,3.10
2023-05-12T00:14:32.291Z,2.78
2023-05-12T00:16:59.829Z,2.72
2023-05-12T00:19:27.391Z,3.00
2023-05-12T00:21:54.924Z,2.90
2023-05-12T00:24:22.247Z,2.95
2023-05-12T00:26:49.735Z,2.72
2023-05-12T00:29:16.946Z,3.38
2023-05-12T00:31:44.490Z,3.17
2023-05-12T00:34:11.802Z,3.08
2023-05-12T00:36:39.915Z,3.08
2023-05-12T00:39:07.278Z,2.97
2023-05-12T00:41:34.775Z,6.63
2023-05-12T00:44:02.055Z,4.70
2023-05-12T00:46:30.303Z,3.88
2023-05-12T00:48:58.506Z,5.43
2023-05-12T00:51:26.656Z,3.05
2023-05-12T00:53:55.541Z,4.90
2023-05-12T00:56:23.653Z,4.07
2023-05-12T00:58:51.389Z,3.65
2023-05-12T01:01:19.364Z,2.72
2023-05-12T01:03:49.857Z,3.58
2023-05-12T01:06:37.144Z,2.50
2023-05-12T01:09:05.921Z,3.17
2023-05-12T01:11:33.453Z,3.22
2023-05-12T01:14:00.789Z,3.20
2023-05-12T01:16:36.815Z,2.85
2023-05-12T01:19:10.847Z,3.30
2023-05-12T01:21:39.031Z,4.03
2023-05-12T01:24:08.848Z,3.17
2023-05-12T01:26:37.906Z,3.77
2023-05-12T01:29:06.785Z,3.40
2023-05-12T01:31:34.589Z,3.35
2023-05-12T01:34:02.001Z,4.10
2023-05-12T01:36:31.613Z,3.38
2023-05-12T01:38:59.252Z,2.92
2023-05-12T01:41:26.752Z,2.97
2023-05-12T01:43:54.181Z,2.65
2023-05-12T01:46:21.872Z,3.40
2023-05-12T01:48:49.867Z,2.88
2023-05-12T01:51:17.542Z,2.60
2023-05-12T01:53:45.271Z,3.25
2023-05-12T01:56:13.091Z,3.17
2023-05-12T01:58:40.482Z,3.47
2023-05-12T02:01:08.047Z,3.33
2023-05-12T02:03:35.302Z,2.90
2023-05-12T02:06:02.986Z,3.25
2023-05-12T02:08:30.357Z,3.35
2023-05-12T02:11:08.368Z,3.28
2023-05-12T02:13:35.876Z,2.55
2023-05-12T02:16:04.225Z,2.90
2023-05-12T02:18:31.596Z,2.80
2023-05-12T02:20:59.464Z,3.35
2023-05-12T02:23:26.607Z,3.10
2023-05-12T02:25:54.133Z,2.65
2023-05-12T02:28:21.308Z,2.53
2023-05-12T02:30:50.847Z,3.30
2023-05-12T02:33:19.695Z,3.40
2023-05-12T02:35:48.066Z,2.78
2023-05-12T02:38:15.835Z,2.83
2023-05-12T02:40:43.453Z,2.90
2023-05-12T02:43:11.215Z,3.05
2023-05-12T02:45:39.116Z,3.08
2023-05-12T02:48:06.717Z,2.97
2023-05-12T02:50:34.230Z,2.72
2023-05-12T02:53:01.453Z,2.75
2023-05-12T02:55:30.305Z,2.47
2023-05-12T02:57:57.720Z,2.90
2023-05-12T03:00:25.490Z,2.95
2023-05-12T03:02:53.009Z,3.03
2023-05-12T03:05:20.918Z,3.22
2023-05-12T03:07:49.559Z,3.30
2023-05-12T03:10:18.933Z,3.85
2023-05-12T03:12:47.133Z,3.10
2023-05-12T03:15:14.664Z,3.05
2023-05-12T03:17:42.555Z,4.07
2023-05-12T03:20:10.422Z,2.63
2023-05-12T03:22:37.950Z,2.97
2023-05-12T03:25:06.391Z,3.08
2023-05-12T03:27:33.703Z,2.95
2023-05-12T03:30:01.290Z,2.92
2023-05-12T03:32:29.792Z,2.88
2023-05-12T03:34:57.394Z,3.05
2023-05-12T03:37:24.852Z,3.17
2023-05-12T03:39:56.090Z,2.92
2023-05-12T03:42:24.188Z,3.00
2023-05-12T03:44:52.160Z,2.90
2023-05-12T03:47:19.467Z,2.90
2023-05-12T03:49:47.078Z,3.17
2023-05-12T03:52:14.393Z,3.08
2023-05-12T03:54:41.864Z,2.63
2023-05-12T03:57:09.052Z,3.38
2023-05-12T03:59:36.513Z,3.20
2023-05-12T04:02:04.342Z,2.88
2023-05-12T04:04:32.007Z,3.10
2023-05-12T04:07:00.298Z,2.95
2023-05-12T04:09:28.041Z,3.10
2023-05-12T04:11:55.325Z,3.25
2023-05-12T04:14:31.892Z,3.05
2023-05-12T04:17:02.990Z,2.80
2023-05-12T04:19:30.523Z,3.08
2023-05-12T04:21:57.973Z,2.80
2023-05-12T04:24:25.681Z,2.80
2023-05-12T04:26:52.894Z,2.83
2023-05-12T04:29:20.623Z,2.97
2023-05-12T04:31:48.078Z,3.08
2023-05-12T04:34:15.653Z,2.83
2023-05-12T04:36:42.906Z,3.17
2023-05-12T04:39:10.445Z,3.03
2023-05-12T04:41:37.650Z,3.15
2023-05-12T04:44:05.494Z,2.97
2023-05-12T04:46:33.686Z,2.92
2023-05-12T04:49:01.944Z,3.08
2023-05-12T04:51:29.160Z,3.50
2023-05-12T04:53:56.681Z,7.55
2023-05-12T04:56:23.909Z,4.57
2023-05-12T04:58:51.834Z,2.83
2023-05-12T05:01:19.294Z,3.22
2023-05-12T05:03:48.020Z,3.58
2023-05-12T05:06:15.383Z,2.90
2023-05-12T05:08:42.962Z,2.92
2023-05-12T05:11:10.177Z,3.15
2023-05-12T05:13:38.060Z,3.45
2023-05-12T05:16:06.860Z,2.95
2023-05-12T05:18:34.697Z,3.83
2023-05-12T05:21:02.131Z,2.75
2023-05-12T05:23:29.754Z,2.92
2023-05-12T05:25:56.973Z,3.05
2023-05-12T05:28:24.688Z,3.72
2023-05-12T05:30:51.911Z,3.08
2023-05-12T05:33:19.669Z,2.88
2023-05-12T05:35:48.094Z,3.58
2023-05-12T05:38:15.835Z,2.88
2023-05-12T05:40:52.925Z,3.20
2023-05-12T05:43:21.831Z,3.10
2023-05-12T05:45:50.099Z,2.60
2023-05-12T05:48:18.661Z,3.25
2023-05-12T05:50:47.186Z,2.50
2023-05-12T05:53:15.532Z,2.88
2023-05-12T05:55:43.568Z,3.40
2023-05-12T05:58:11.196Z,2.58
2023-05-12T06:00:38.899Z,2.45
2023-05-12T06:03:06.510Z,2.92
2023-05-12T06:05:34.401Z,3.05
2023-05-12T06:08:01.908Z,2.63
2023-05-12T06:10:29.112Z,3.45
2023-05-12T06:12:56.670Z,2.88
2023-05-12T06:15:23.907Z,3.22
2023-05-12T06:17:51.430Z,2.55
2023-05-12T06:20:18.719Z,2.92
2023-05-12T06:22:46.400Z,3.60
2023-05-12T06:25:13.635Z,3.30
2023-05-12T06:27:41.276Z,3.03
2023-05-12T06:30:09.676Z,3.00
2023-05-12T06:32:37.217Z,2.97
2023-05-12T06:35:06.811Z,2.45
2023-05-12T06:37:34.313Z,3.03
2023-05-12T06:40:01.601Z,2.90
2023-05-12T06:42:29.125Z,2.67
2023-05-12T06:44:56.842Z,2.75
2023-05-12T06:47:24.458Z,3.35
2023-05-12T06:49:51.824Z,2.55
2023-05-12T06:52:20.649Z,3.08
2023-05-12T06:54:47.924Z,2.75
2023-05-12T06:57:15.490Z,2.33
2023-05-12T06:59:42.659Z,2.60
2023-05-12T07:02:10.120Z,2.47
2023-05-12T07:04:37.450Z,2.88
2023-05-12T07:07:05.080Z,3.10
2023-05-12T07:09:32.271Z,2.80
2023-05-12T07:12:00.859Z,2.75
2023-05-12T07:14:28.066Z,2.97
2023-05-12T07:16:55.655Z,2.78
2023-05-12T07:19:22.999Z,3.00
2023-05-12T07:21:50.501Z,3.35
2023-05-12T07:24:17.723Z,3.25
2023-05-12T07:26:45.171Z,2.75
2023-05-12T07:29:13.843Z,3.17
2023-05-12T07:31:41.728Z,3.22
2023-05-12T07:34:08.998Z,3.20
2023-05-12T07:36:36.520Z,2.92
2023-05-12T07:39:03.765Z,2.83
2023-05-12T07:41:32.545Z,2.60
2023-05-12T07:44:02.382Z,2.88
2023-05-12T07:46:30.076Z,2.40
2023-05-12T07:48:57.472Z,2.47
2023-05-12T07:51:25.057Z,2.80
2023-05-12T07:53:52.317Z,2.33
2023-05-12T07:56:19.832Z,2.55
2023-05-12T07:58:47.607Z,2.60
2023-05-12T08:01:15.341Z,2.20
2023-05-12T08:03:42.745Z,2.55
2023-05-12T08:06:10.734Z,2.60
2023-05-12T08:08:38.146Z,2.08
2023-05-12T08:11:05.871Z,2.28
2023-05-12T08:13:33.223Z,2.08
2023-05-12T08:16:00.833Z,2.10
2023-05-12T08:18:28.051Z,3.58
2023-05-12T08:20:55.792Z,3.88
2023-05-12T08:23:23.275Z,1.95
2023-05-12T08:25:50.815Z,2.47
2023-05-12T08:28:18.032Z,2.17
2023-05-12T08:30:45.775Z,3.00
2023-05-12T08:33:13.370Z,3.80
2023-05-12T08:35:41.068Z,3.65
2023-05-12T08:38:08.396Z,3.47
2023-05-12T08:40:46.700Z,2.88
2023-05-12T08:43:25.069Z,3.33
2023-05-12T08:46:00.365Z,2.80
2023-05-12T08:48:29.419Z,3.50
2023-05-12T08:50:58.065Z,2.63
2023-05-12T08:53:27.151Z,3.30
2023-05-12T08:57:10.003Z,2.75
2023-05-12T08:58:45.724Z,4.30
2023-05-12T09:01:15.182Z,3.03
2023-05-12T09:03:42.654Z,2.67
2023-05-12T09:06:11.729Z,2.90
2023-05-12T09:08:39.556Z,2.88
2023-05-12T09:11:09.763Z,3.13
2023-05-12T09:14:03.244Z,3.20
2023-05-12T09:16:35.931Z,2.85
2023-05-12T09:19:06.071Z,1.90
2023-05-12T09:21:34.666Z,1.88
2023-05-12T09:24:07.153Z,1.42
2023-05-12T09:26:47.433Z,1.48
2023-05-12T09:29:24.115Z,1.55
2023-05-12T09:31:59.781Z,1.48
2023-05-12T09:34:41.345Z,1.50
2023-05-12T09:37:09.657Z,2.08
2023-05-12T09:39:37.046Z,1.00
2023-05-12T09:42:10.963Z,1.80
2023-05-12T09:44:39.277Z,1.38
2023-05-12T09:47:08.040Z,1.77
2023-05-12T09:49:35.819Z,1.35
2023-05-12T09:52:05.026Z,1.38
2023-05-12T09:54:33.867Z,1.52
2023-05-12T09:57:04.036Z,1.10
2023-05-12T09:59:33.496Z,1.48
2023-05-12T10:02:05.558Z,1.65
2023-05-12T10:04:41.794Z,1.30
2023-05-12T10:07:12.933Z,2.10
2023-05-12T10:09:42.522Z,1.77
2023-05-12T10:12:10.770Z,1.20
2023-05-12T10:14:38.685Z,1.77
2023-05-12T10:17:07.384Z,1.60
2023-05-12T10:19:36.083Z,1.67
2023-05-12T10:22:05.863Z,1.73
2023-05-12T10:24:33.652Z,1.65
2023-05-12T10:27:03.853Z,1.58
2023-05-12T10:29:33.135Z,1.10
2023-05-12T10:32:04.143Z,1.55
2023-05-12T10:34:35.239Z,1.55
2023-05-12T10:39:35.809Z,1.60
2023-05-12T10:42:08.580Z,1.83
2023-05-12T10:44:37.074Z,1.25
2023-05-12T10:47:16.716Z,2.47
2023-05-12T10:49:43.966Z,1.50
2023-05-12T10:52:13.497Z,1.88
2023-05-12T10:54:44.594Z,1.75
2023-05-12T10:59:56.298Z,1.60
2023-05-12T11:02:29.246Z,1.60
2023-05-12T11:05:02.343Z,1.48
2023-05-12T11:07:33.087Z,1.75
2023-05-12T11:10:03.693Z,1.80
2023-05-12T11:12:35.401Z,1.60
2023-05-12T11:15:04.603Z,1.75
2023-05-12T11:17:33.743Z,1.75
2023-05-12T11:20:01.618Z,1.60
2023-05-12T11:22:29.795Z,1.73
2023-05-12T11:24:57.153Z,1.52
2023-05-12T11:27:24.764Z,1.67
2023-05-12T11:30:00.544Z,1.63
2023-05-12T11:32:29.622Z,1.50
2023-05-12T11:35:10.960Z,1.50
2023-05-12T11:37:40.377Z,1.50
2023-05-12T11:40:19.080Z,1.35
2023-05-12T11:42:51.552Z,1.40
2023-05-12T11:45:23.791Z,1.55
2023-05-12T11:47:52.166Z,1.58
2023-05-12T11:50:24.097Z,1.55
2023-05-12T11:52:52.992Z,1.15
2023-05-12T11:55:24.790Z,1.20
2023-05-12T11:58:00.530Z,1.15
2023-05-12T12:00:33.427Z,1.10
2023-05-12T12:03:11.669Z,1.30
2023-05-12T12:05:43.635Z,1.08
2023-05-12T12:08:16.255Z,1.40
2023-05-12T12:10:46.899Z,1.05
2023-05-12T12:13:22.964Z,1.30
2023-05-12T12:15:51.114Z,1.30
2023-05-12T12:18:22.068Z,1.27
2023-05-12T12:20:49.407Z,1.27
2023-05-12T12:23:16.884Z,1.52
2023-05-12T12:25:44.170Z,1.33
2023-05-12T12:28:12.331Z,0.98
2023-05-12T12:30:39.574Z,1.05
2023-05-12T12:33:07.211Z,1.58
2023-05-12T12:35:34.456Z,1.08
2023-05-12T12:38:01.926Z,1.98
2023-05-12T12:40:29.108Z,1.77
2023-05-12T12:42:57.760Z,1.20
2023-05-12T12:45:25.365Z,1.40
2023-05-12T12:47:54.869Z,1.48
2023-05-12T12:50:23.544Z,1.30
2023-05-12T12:52:52.354Z,1.10
2023-05-12T12:55:20.039Z,1.58
2023-05-12T12:57:47.846Z,1.10
2023-05-12T13:00:15.508Z,1.33
2023-05-12T13:02:43.074Z,1.50
2023-05-12T13:05:10.909Z,1.30
2023-05-12T13:07:38.383Z,1.38
2023-05-12T13:10:05.974Z,1.55
2023-05-12T13:12:33.654Z,1.20
2023-05-12T13:15:01.022Z,1.42
2023-05-12T13:17:29.176Z,1.63
2023-05-12T13:19:56.470Z,1.52
2023-05-12T13:22:25.862Z,1.17
2023-05-12T13:24:53.445Z,1.27
2023-05-12T13:27:21.057Z,1.50
2023-05-12T13:29:48.329Z,1.05
2023-05-12T13:32:16.367Z,1.58
2023-05-12T13:34:43.624Z,1.20
2023-05-12T13:37:11.259Z,1.67
2023-05-12T13:39:38.471Z,1.45
2023-05-12T13:42:06.418Z,1.50
2023-05-12T13:44:33.628Z,1.38
2023-05-12T13:47:01.144Z,1.23
2023-05-12T13:49:28.319Z,1.35
2023-05-12T13:51:55.874Z,1.40
2023-05-12T13:54:24.078Z,1.58
2023-05-12T13:56:51.878Z,1.30
2023-05-12T13:59:19.573Z,1.50
2023-05-12T14:01:47.282Z,1.00
2023-05-12T14:04:14.554Z,1.20
2023-05-12T14:06:42.073Z,1.38
2023-05-12T14:09:09.349Z,1.65
2023-05-12T14:11:37.084Z,2.40
2023-05-12T14:14:06.330Z,2.35
2023-05-12T14:16:34.039Z,2.33
2023-05-12T14:19:01.581Z,2.40
2023-05-12T14:21:29.182Z,2.40
2023-05-12T14:23:56.415Z,1.90
2023-05-12T14:26:25.650Z,1.90
2023-05-12T14:28:53.091Z,2.63
2023-05-12T14:31:20.692Z,2.00
2023-05-12T14:33:47.972Z,2.03
2023-05-12T14:36:15.476Z,2.42
2023-05-12T14:38:42.786Z,2.42
2023-05-12T14:41:11.133Z,2.00
2023-05-12T14:43:38.464Z,2.10
2023-05-12T14:46:06.628Z,1.95
2023-05-12T14:48:33.863Z,2.30
2023-05-12T14:51:03.315Z,2.90
2023-05-12T14:53:31.225Z,3.38
2023-05-12T14:55:58.752Z,2.67
2023-05-12T14:58:26.042Z,3.83
2023-05-12T15:00:53.923Z,3.08
2023-05-12T15:03:21.437Z,2.95
2023-05-12T15:06:04.879Z,2.83
2023-05-12T15:08:33.953Z,2.20
2023-05-12T15:11:01.471Z,2.97
2023-05-12T15:13:28.743Z,2.60
2023-05-12T15:15:57.086Z,2.85
2023-05-12T15:18:24.585Z,3.30
2023-05-12T15:20:52.224Z,2.58
2023-05-12T15:23:19.367Z,2.83
2023-05-12T15:25:46.869Z,3.97
2023-05-12T15:28:14.153Z,4.20
2023-05-12T15:30:41.718Z,2.10
2023-05-12T15:33:09.033Z,2.60
2023-05-12T15:35:36.700Z,1.98
2023-05-12T15:38:04.342Z,1.95
2023-05-12T15:40:31.871Z,1.80
2023-05-12T15:42:59.156Z,1.92
2023-05-12T15:45:26.699Z,2.22
2023-05-12T15:47:54.155Z,1.90
2023-05-12T15:50:23.073Z,2.35
2023-05-12T15:52:50.894Z,2.20
2023-05-12T15:55:18.743Z,2.05
2023-05-12T15:57:46.304Z,2.03
2023-05-12T16:00:14.732Z,2.03
2023-05-12T16:02:42.013Z,1.83
2023-05-12T16:05:09.991Z,1.65
2023-05-12T16:07:37.189Z,3.20
2023-05-12T16:10:05.807Z,2.00
2023-05-12T16:12:33.056Z,1.80
2023-05-12T16:15:00.623Z,2.13
2023-05-12T16:17:28.453Z,1.80
2023-05-12T16:19:57.084Z,2.15
2023-05-12T16:22:24.323Z,1.95
2023-05-12T16:24:53.797Z,2.30
2023-05-12T16:27:21.016Z,2.17
2023-05-12T16:29:49.684Z,2.00
2023-05-12T16:32:17.524Z,2.70
2023-05-12T16:34:45.294Z,1.60
2023-05-12T16:37:12.557Z,2.00
2023-05-12T16:39:40.195Z,2.47
2023-05-12T16:42:07.577Z,2.38
2023-05-12T16:44:35.066Z,2.13
2023-05-12T16:47:02.293Z,2.08
2023-05-12T16:49:30.124Z,2.10
2023-05-12T16:51:57.333Z,1.85
2023-05-12T16:54:24.913Z,1.83
2023-05-12T16:56:52.257Z,1.58
2023-05-12T16:59:21.167Z,1.90
2023-05-12T17:01:48.450Z,1.90
2023-05-12T17:04:16.335Z,2.00
2023-05-12T17:06:43.663Z,1.67
2023-05-12T17:09:11.212Z,2.00
2023-05-12T17:11:38.414Z,2.03
2023-05-12T17:14:05.962Z,2.30
2023-05-12T17:16:33.400Z,1.85
2023-05-12T17:21:31.492Z,1.70
2023-05-12T17:23:58.979Z,2.00
2023-05-12T17:26:27.956Z,1.88
2023-05-12T17:28:56.085Z,1.73
2023-05-12T17:31:23.640Z,1.73
2023-05-12T17:33:51.444Z,1.88
2023-05-12T17:36:18.956Z,2.17
2023-05-12T17:38:46.536Z,1.83
2023-05-12T17:41:13.788Z,2.08
2023-05-12T17:43:41.566Z,2.72
2023-05-12T17:46:09.256Z,1.77
2023-05-12T17:48:38.575Z,2.03
2023-05-12T17:51:06.220Z,2.30
2023-05-12T17:53:34.233Z,2.00
2023-05-12T17:56:01.769Z,2.10
2023-05-12T17:58:29.522Z,1.88
2023-05-12T18:00:56.870Z,2.00
2023-05-12T18:03:24.759Z,1.85
2023-05-12T18:05:54.183Z,1.77
2023-05-12T18:08:21.879Z,2.55
2023-05-12T18:10:49.159Z,2.35
2023-05-12T18:13:17.033Z,2.08
2023-05-12T18:15:44.570Z,2.15
2023-05-12T18:18:12.473Z,2.20
2023-05-12T18:20:39.794Z,2.05
2023-05-12T18:23:07.289Z,2.22
2023-05-12T18:25:34.500Z,2.10
2023-05-12T18:28:03.371Z,2.72
2023-05-12T18:30:31.273Z,2.40
2023-05-12T18:32:58.992Z,2.30
2023-05-12T18:35:27.195Z,2.92
2023-05-12T18:37:54.990Z,2.40
2023-05-12T18:40:22.272Z,2.50
2023-05-12T18:42:51.159Z,2.65
2023-05-12T18:45:19.657Z,2.70
2023-05-12T18:47:47.310Z,2.45
2023-05-12T18:50:14.625Z,2.50
2023-05-12T18:52:42.933Z,2.33
2023-05-12T18:55:10.959Z,2.40
2023-05-12T18:57:38.496Z,2.53
2023-05-12T19:00:06.652Z,2.65
2023-05-12T19:02:34.728Z,3.05
2023-05-12T19:05:02.579Z,2.63
2023-05-12T19:07:30.437Z,2.42
2023-05-12T19:09:58.783Z,3.05
2023-05-12T19:12:26.914Z,2.90
2023-05-12T19:14:54.325Z,3.25
2023-05-12T19:17:22.264Z,3.10
2023-05-12T19:19:50.725Z,3.65
2023-05-12T19:22:18.232Z,3.13
2023-05-12T19:24:45.911Z,2.80
2023-05-12T19:27:13.454Z,3.00
2023-05-12T19:29:40.721Z,3.30
2023-05-12T19:32:08.943Z,3.40
2023-05-12T19:34:36.720Z,3.45
2023-05-12T19:37:05.629Z,3.03
2023-05-12T19:39:33.202Z,3.20
2023-05-12T19:42:00.862Z,2.92
2023-05-12T19:44:29.939Z,3.30
2023-05-12T19:47:04.508Z,3.58
2023-05-12T19:49:35.986Z,3.45
2023-05-12T19:52:05.591Z,3.15
2023-05-12T19:54:33.099Z,3.47
2023-05-12T19:57:00.668Z,4.18
2023-05-12T19:59:28.112Z,4.80
2023-05-12T20:01:56.011Z,3.28
2023-05-12T20:04:23.935Z,3.90
2023-05-12T20:06:51.578Z,4.45
2023-05-12T20:09:20.802Z,3.45
2023-05-12T20:11:49.082Z,4.03
2023-05-12T20:14:16.484Z,3.58
2023-05-12T20:16:44.688Z,3.75
2023-05-12T20:19:12.163Z,3.90
2023-05-12T20:21:41.619Z,3.47
2023-05-12T20:24:09.571Z,3.20
2023-05-12T20:26:38.021Z,2.90
2023-05-12T20:29:05.379Z,3.20
2023-05-12T20:31:32.984Z,3.08
2023-05-12T20:34:00.295Z,3.03
2023-05-12T20:36:27.931Z,2.58
2023-05-12T20:38:55.206Z,3.38
2023-05-12T20:41:22.898Z,3.72
2023-05-12T20:43:50.095Z,3.63
2023-05-12T20:46:17.793Z,3.83
2023-05-12T20:48:45.146Z,3.40
2023-05-12T20:51:13.424Z,3.80
2023-05-12T20:53:40.741Z,3.28
2023-05-12T20:56:08.701Z,3.22
2023-05-12T20:58:36.652Z,3.35
2023-05-12T21:01:04.433Z,3.10
2023-05-12T21:03:33.851Z,3.40
2023-05-12T21:06:01.735Z,3.35
2023-05-12T21:08:28.953Z,4.43
2023-05-12T21:10:56.623Z,3.80
2023-05-12T21:13:23.894Z,4.03
2023-05-12T21:15:51.599Z,3.80
2023-05-12T21:18:18.772Z,2.95
2023-05-12T21:20:46.391Z,3.50
2023-05-12T21:23:13.846Z,4.00
2023-05-12T21:25:41.419Z,3.80
2023-05-12T21:28:08.644Z,3.92
2023-05-12T21:30:37.394Z,3.95
2023-05-12T21:33:05.600Z,4.00
2023-05-12T21:35:33.304Z,3.78
2023-05-12T21:38:00.762Z,4.10
2023-05-12T21:40:29.224Z,3.20
2023-05-12T21:42:56.447Z,3.47
2023-05-12T21:45:24.047Z,3.05
2023-05-12T21:47:51.472Z,3.35
2023-05-12T21:50:21.629Z,3.20
2023-05-12T21:52:49.829Z,3.30
2023-05-12T21:55:17.429Z,3.22
2023-05-12T21:57:44.650Z,3.42
2023-05-12T22:00:14.890Z,2.90
2023-05-12T22:02:42.266Z,4.00
2023-05-12T22:05:10.214Z,4.28
2023-05-12T22:07:37.412Z,3.22
2023-05-12T22:10:05.949Z,3.40
2023-05-12T22:12:33.262Z,3.25
2023-05-12T22:15:00.820Z,3.38
2023-05-12T22:17:28.133Z,3.33
2023-05-12T22:19:55.807Z,3.13
2023-05-12T22:22:23.228Z,3.22
2023-05-12T22:24:51.936Z,3.88
2023-05-12T22:27:22.214Z,9.43
2023-05-12T22:29:49.828Z,3.78
2023-05-12T22:32:17.052Z,3.60
2023-05-12T22:34:44.602Z,3.60
2023-05-12T22:37:11.811Z,3.40
2023-05-12T22:39:39.386Z,3.45
2023-05-12T22:42:06.882Z,3.75
2023-05-12T22:44:34.452Z,3.08
2023-05-12T22:47:01.805Z,3.05
2023-05-12T22:49:29.297Z,3.47
2023-05-12T22:51:56.615Z,3.17
2023-05-12T22:54:24.134Z,3.10
2023-05-12T22:56:51.344Z,3.33
2023-05-12T22:59:18.814Z,3.33
2023-05-12T23:01:46.378Z,3.60
2023-05-12T23:04:13.953Z,3.20
2023-05-12T23:06:41.395Z,3.17
2023-05-12T23:09:09.662Z,2.85
2023-05-12T23:11:37.010Z,3.28
2023-05-12T23:14:04.595Z,2.78
2023-05-12T23:16:31.978Z,3.63
2023-05-12T23:18:59.588Z,3.35
2023-05-12T23:21:26.793Z,3.47
2023-05-12T23:23:54.224Z,3.75
2023-05-12T23:26:21.448Z,3.65
2023-05-12T23:28:48.957Z,3.40
2023-05-12T23:31:16.296Z,3.15
2023-05-12T23:33:43.936Z,3.53
2023-05-12T23:36:11.326Z,3.25
2023-05-12T23:38:38.958Z,3.50
2023-05-12T23:41:06.247Z,3.58
2023-05-12T23:43:33.800Z,3.50
2023-05-12T23:46:01.507Z,3.67
2023-05-12T23:48:29.933Z,3.28
2023-05-12T23:50:57.298Z,3.58
2023-05-12T23:53:24.796Z,3.72
2023-05-12T23:55:51.981Z,3.20
2023-05-12T23:58:19.437Z,3.25
